METAR Data
IDs: Format: Raw Decoded Include TAF

Data at: 2012 UTC 14 Dec 2018

KFWS 141950Z 32016G24KT 10SM OVC014 07/05 A3000
KFWS 141855Z 31017G22KT 7SM -RA OVC012 06/04 A3002
KFWS 141746Z 31015G22KT 2SM BR OVC012 06/04 A3004
KFWS 141652Z 31014G24KT 10SM OVC014 06/04 A3004
KFWS 141551Z 32019G24KT 10SM OVC012 06/04 A3004
KFWS 141450Z 32017G24KT 7SM BKN008 OVC012 05/04 A3000
KFWS 141354Z 33017G21KT 3SM BR BKN009 OVC014 05/04 A2999
KFWS 141250Z 33017G22KT 2 1/2SM BR OVC009 05/04 A2997
KFWS 141215Z AUTO 33015G22KT 3SM -DZ BKN009 OVC013 05/04 A2994 RMK AO2 LTG DSNT NE T00530042
KFWS 141155Z AUTO 32014G22KT 2 1/2SM -RA BKN010 OVC013 06/05 A2993 RMK AO2 LTG DSNT NE 70002 T00550045 10067 20055
KFWS 141135Z AUTO 33013G18KT 2 1/2SM BR OVC008 06/05 A2992 RMK AO2 T00580047
KFWS 141115Z AUTO 33016G22KT 3SM BR BKN011 OVC016 06/05 A2991 RMK AO2 T00600047
KFWS 141055Z AUTO 33016G22KT 4SM BR BKN010 OVC014 06/05 A2990 RMK AO2 T00610050
KFWS 141035Z AUTO 32017G23KT 4SM BR SCT008 OVC013 06/05 A2990 RMK AO2 LTG DSNT NE T00620050
KFWS 141015Z AUTO 33015G22KT 5SM BR BKN011 BKN015 OVC020 06/05 A2989 RMK AO2 LTG DSNT NE T00630050
KFWS 140955Z AUTO 33018G23KT 5SM BR SCT009 BKN013 OVC020 06/05 A2989 RMK AO2 T00630050
KFWS 140935Z AUTO 33015G21KT 5SM BR SCT007 BKN012 OVC017 07/05 A2988 RMK AO2 T00650053
KFWS 140915Z AUTO 32016G23KT 5SM BR SCT008 BKN013 OVC019 07/06 A2987 RMK AO2 T00660055
KFWS 140855Z AUTO 33015G20KT 10SM BKN008 OVC014 07/05 A2987 RMK AO2 T00650053
KFWS 140835Z AUTO 33014G17KT 7SM BKN009 OVC014 07/05 A2986 RMK AO2 T00650053
KFWS 140815Z AUTO 33013G18KT 7SM SCT007 BKN010 OVC021 07/06 A2986 RMK AO2 T00660055
KFWS 140755Z AUTO 33015G21KT 7SM OVC009 07/06 A2985 RMK AO2 T00660055
KFWS 140735Z AUTO 34014G20KT 10SM OVC011 07/06 A2985 RMK AO2 T00660055
KFWS 140715Z AUTO 34014G20KT 10SM SCT006 OVC011 07/06 A2985 RMK AO2 T00660055
KFWS 140655Z AUTO 34014G17KT 7SM BKN009 OVC014 07/06 A2985 RMK AO2 T00660055
KFWS 140635Z AUTO 34015G19KT 10SM BKN009 OVC015 07/06 A2985 RMK AO2 T00660055
KFWS 140615Z AUTO 34013G20KT 7SM OVC009 07/06 A2984 RMK AO2 T00670055
KFWS 140555Z AUTO 35012G18KT 5SM BR OVC009 07/06 A2984 RMK AO2 T00670055 10080 20067 401900067
KFWS 140535Z AUTO 34012G20KT 7SM OVC011 07/06 A2984 RMK AO2 T00670055
KFWS 140515Z AUTO 34013G18KT 10SM BKN011 OVC014 07/06 A2983 RMK AO2 T00670055
KFWS 140455Z AUTO 35014G19KT 5SM BR OVC011 07/06 A2982 RMK AO2 T00680055
KFWS 140435Z AUTO 34012G19KT 4SM BR OVC011 07/06 A2982 RMK AO2 T00700055
KFWS 140415Z AUTO 35015G20KT 4SM BR OVC011 07/06 A2981 RMK AO2 T00700055
KFWS 140355Z AUTO 35013G21KT 4SM BR OVC011 07/05 A2980 RMK AO2 T00720052
KFWS 140335Z AUTO 35014G20KT 10SM OVC011 08/05 A2980 RMK AO2 T00750052
KFWS 140315Z AUTO 36015G20KT 10SM OVC011 08/05 A2980 RMK AO2 T00750052
KFWS 140255Z AUTO 34014G19KT 10SM OVC013 07/05 A2980 RMK AO2 T00730051
KFWS 140235Z AUTO 36011G18KT 10SM OVC013 07/05 A2981 RMK AO2 LTG DSNT NW T00730050
KFWS 140215Z AUTO 36012G21KT 10SM OVC013 07/05 A2980 RMK AO2 LTG DSNT NW T00730050
KFWS 140155Z AUTO 35012G19KT 10SM OVC015 07/05 A2979 RMK AO2 T00730050
KFWS 140052Z 34015G20KT 10SM OVC013 07/06 A2979
KFWS 132350Z 34006KT 7SM OVC013 08/06 A2977
KFWS 132252Z 28006KT 10SM OVC011 09/07 A2977
KFWS 132150Z 32013G22KT 7SM SCT013 BKN022 OVC042 10/07 A2972
KFWS 132052Z 26010G16KT 7SM SCT028 SCT120 16/10 A2966
KFWS 131948Z 24007KT 7SM -RA SCT028 SCT090 17/11 A2965
KFWS 131846Z 23014KT 7SM BKN030 OVC040 17/11 A2967
KFWS 131750Z 20008KT 7SM SCT029 BKN039 18/12 A2968
KFWS 131650Z 18008KT 7SM BKN020 BKN032 18/13 A2970
KFWS 131548Z 17005KT 7SM BKN011 BKN095 17/16 A2970
KFWS 131447Z 15008KT 7SM SCT006 SCT011 BKN090 16/14 A2970
KFWS 131347Z 13007KT 7SM SCT009 BKN090 BKN110 15/14 A2969
KFWS 131247Z 15006KT 7SM BKN009 BKN100 BKN120 15/14 A2968
KFWS 131215Z AUTO 17006KT 7SM BKN110 15/14 A2967 RMK AO2 T01510140
KFWS 131155Z AUTO 17006KT 7SM BKN110 15/14 A2967 RMK AO2 LTG DSNT N AND NE T01510140 10165 20151
KFWS 131135Z AUTO 18006KT 7SM SCT110 15/14 A2968 RMK AO2 T01520140
KFWS 131115Z AUTO 19006KT 7SM CLR 16/14 A2967 RMK AO2 T01550142
KFWS 131055Z AUTO 20006KT 7SM SCT008 SCT013 SCT020 16/14 A2968 RMK AO2 LTG DSNT N AND NE T01570144
KFWS 131035Z AUTO 19007KT 7SM BKN008 BKN013 BKN100 16/15 A2969 RMK AO2 LTG DSNT NW T01600147
KFWS 131015Z AUTO 17008KT 7SM BKN006 OVC013 16/15 A2969 RMK AO2 LTG DSNT NE T01610148
KFWS 130955Z AUTO 18010KT 7SM OVC006 17/15 A2970 RMK AO2 LTG DSNT NE AND NW T01650150
KFWS 130935Z AUTO 18007KT 10SM OVC008 16/15 A2972 RMK AO2 LTG DSNT NE AND NW T01640147
KFWS 130915Z AUTO 19010G16KT 10SM VCTS OVC010 17/15 A2973 RMK AO2 LTG DSNT NW THRU E T01650147
KFWS 130855Z AUTO 17011KT 10SM VCTS BKN010 OVC017 17/15 A2974 RMK AO2 LTG DSNT NE AND NW T01650146
KFWS 130835Z AUTO 18012G22KT 10SM BKN010 OVC017 16/15 A2975 RMK AO2 LTG DSNT E T01620145
KFWS 130815Z AUTO 18013G18KT 10SM VCTS BKN010 OVC015 16/14 A2976 RMK AO2 LTG DSNT W AND NW T01630143